sensor_id;sensor_type;location;lat;lon;timestamp;pressure;altitude;pressure_sealevel;temperature;humidity
56671;BME280;42545;50.054;8.306;2022-07-04T00:01:42;100200.03;;;18.83;56.94
56671;BME280;42545;50.054;8.306;2022-07-04T00:04:09;100203.69;;;18.76;57.37
56671;BME280;42545;50.054;8.306;2022-07-04T00:06:36;100205.59;;;18.68;57.80
56671;BME280;42545;50.054;8.306;2022-07-04T00:09:03;100212.81;;;18.59;58.13
56671;BME280;42545;50.054;8.306;2022-07-04T00:11:30;100212.06;;;18.51;58.78
56671;BME280;42545;50.054;8.306;2022-07-04T00:13:56;100211.25;;;18.46;58.78
56671;BME280;42545;50.054;8.306;2022-07-04T00:16:25;100213.09;;;18.39;58.58
56671;BME280;42545;50.054;8.306;2022-07-04T00:18:51;100213.16;;;18.36;59.09
56671;BME280;42545;50.054;8.306;2022-07-04T00:21:18;100205.19;;;18.32;59.74
56671;BME280;42545;50.054;8.306;2022-07-04T00:23:45;100209.69;;;18.27;60.30
56671;BME280;42545;50.054;8.306;2022-07-04T00:26:14;100198.25;;;18.18;60.74
56671;BME280;42545;50.054;8.306;2022-07-04T00:28:41;100205.41;;;18.13;61.04
56671;BME280;42545;50.054;8.306;2022-07-04T00:31:08;100198.38;;;18.08;60.93
56671;BME280;42545;50.054;8.306;2022-07-04T00:33:37;100200.19;;;18.04;61.22
56671;BME280;42545;50.054;8.306;2022-07-04T00:36:04;100202.00;;;18.00;61.08
56671;BME280;42545;50.054;8.306;2022-07-04T00:38:31;100201.19;;;17.95;60.96
56671;BME280;42545;50.054;8.306;2022-07-04T00:40:57;100199.47;;;17.90;61.23
56671;BME280;42545;50.054;8.306;2022-07-04T00:43:27;100201.28;;;17.88;61.51
56671;BME280;42545;50.054;8.306;2022-07-04T00:45:55;100204.84;;;17.83;61.81
56671;BME280;42545;50.054;8.306;2022-07-04T00:48:22;100199.53;;;17.80;62.02
56671;BME280;42545;50.054;8.306;2022-07-04T00:50:50;100203.09;;;17.81;62.23
56671;BME280;42545;50.054;8.306;2022-07-04T00:53:19;100210.22;;;17.80;62.19
56671;BME280;42545;50.054;8.306;2022-07-04T00:55:46;100214.63;;;17.81;62.26
56671;BME280;42545;50.054;8.306;2022-07-04T00:58:14;100218.22;;;17.80;62.51
56671;BME280;42545;50.054;8.306;2022-07-04T01:00:42;100211.16;;;17.75;62.97
56671;BME280;42545;50.054;8.306;2022-07-04T01:03:09;100213.00;;;17.70;63.09
56671;BME280;42545;50.054;8.306;2022-07-04T01:05:36;100206.81;;;17.66;63.60
56671;BME280;42545;50.054;8.306;2022-07-04T01:08:06;100208.63;;;17.59;63.99
56671;BME280;42545;50.054;8.306;2022-07-04T01:10:33;100222.06;;;17.52;64.81
56671;BME280;42545;50.054;8.306;2022-07-04T01:13:01;100229.28;;;17.42;65.36
56671;BME280;42545;50.054;8.306;2022-07-04T01:15:28;100233.81;;;17.31;65.50
56671;BME280;42545;50.054;8.306;2022-07-04T01:17:55;100233.91;;;17.21;65.66
56671;BME280;42545;50.054;8.306;2022-07-04T01:20:24;100232.09;;;17.22;65.40
56671;BME280;42545;50.054;8.306;2022-07-04T01:22:50;100232.97;;;17.25;65.60
56671;BME280;42545;50.054;8.306;2022-07-04T01:25:17;100232.03;;;17.29;65.48
56671;BME280;42545;50.054;8.306;2022-07-04T01:27:44;100240.91;;;17.28;65.49
56671;BME280;42545;50.054;8.306;2022-07-04T01:30:11;100241.84;;;17.26;65.79
56671;BME280;42545;50.054;8.306;2022-07-04T01:32:38;100242.78;;;17.22;65.95
56671;BME280;42545;50.054;8.306;2022-07-04T01:35:06;100240.19;;;17.14;66.47
56671;BME280;42545;50.054;8.306;2022-07-04T01:37:38;100239.31;;;17.07;66.90
56671;BME280;42545;50.054;8.306;2022-07-04T01:40:05;100246.47;;;17.02;66.98
56671;BME280;42545;50.054;8.306;2022-07-04T01:42:32;100242.94;;;16.99;67.48
56671;BME280;42545;50.054;8.306;2022-07-04T01:45:02;100248.31;;;16.94;67.40
56671;BME280;42545;50.054;8.306;2022-07-04T01:47:28;100245.66;;;16.91;67.75
56671;BME280;42545;50.054;8.306;2022-07-04T01:49:55;100252.78;;;16.86;67.99
56671;BME280;42545;50.054;8.306;2022-07-04T01:52:22;100251.91;;;16.79;68.16
56671;BME280;42545;50.054;8.306;2022-07-04T01:54:51;100252.84;;;16.72;68.52
56671;BME280;42545;50.054;8.306;2022-07-04T01:57:18;100259.09;;;16.65;68.82
56671;BME280;42545;50.054;8.306;2022-07-04T01:59:45;100261.78;;;16.57;68.99
56671;BME280;42545;50.054;8.306;2022-07-04T02:02:29;100269.81;;;16.46;69.43
56671;BME280;42545;50.054;8.306;2022-07-04T02:04:56;100274.31;;;16.38;69.75
56671;BME280;42545;50.054;8.306;2022-07-04T02:07:23;100273.44;;;16.31;70.29
56671;BME280;42545;50.054;8.306;2022-07-04T02:09:51;100266.41;;;16.23;70.56
56671;BME280;42545;50.054;8.306;2022-07-04T02:12:18;100276.16;;;16.18;70.91
56671;BME280;42545;50.054;8.306;2022-07-04T02:15:03;100278.81;;;16.13;71.54
56671;BME280;42545;50.054;8.306;2022-07-04T02:17:30;100277.94;;;16.11;71.72
56671;BME280;42545;50.054;8.306;2022-07-04T02:19:57;100276.19;;;16.07;72.16
56671;BME280;42545;50.054;8.306;2022-07-04T02:22:24;100281.50;;;16.02;72.20
56671;BME280;42545;50.054;8.306;2022-07-04T02:24:53;100287.75;;;15.98;72.33
56671;BME280;42545;50.054;8.306;2022-07-04T02:27:20;100289.50;;;15.93;72.32
56671;BME280;42545;50.054;8.306;2022-07-04T02:29:46;100288.63;;;15.91;72.75
56671;BME280;42545;50.054;8.306;2022-07-04T02:32:13;100291.31;;;15.86;72.66
56671;BME280;42545;50.054;8.306;2022-07-04T02:34:40;100291.31;;;15.82;72.63
56671;BME280;42545;50.054;8.306;2022-07-04T02:37:07;100280.69;;;15.74;72.78
56671;BME280;42545;50.054;8.306;2022-07-04T02:39:35;100291.28;;;15.71;73.25
56671;BME280;42545;50.054;8.306;2022-07-04T02:42:04;100293.97;;;15.66;73.46
56671;BME280;42545;50.054;8.306;2022-07-04T02:44:31;100292.19;;;15.62;73.80
56671;BME280;42545;50.054;8.306;2022-07-04T02:46:57;100290.41;;;15.58;74.06
56671;BME280;42545;50.054;8.306;2022-07-04T02:49:25;100293.06;;;15.55;74.42
56671;BME280;42545;50.054;8.306;2022-07-04T02:51:52;100287.75;;;15.50;74.78
56671;BME280;42545;50.054;8.306;2022-07-04T02:54:19;100285.97;;;15.48;75.16
56671;BME280;42545;50.054;8.306;2022-07-04T02:56:46;100283.34;;;15.45;75.82
56671;BME280;42545;50.054;8.306;2022-07-04T02:59:14;100286.84;;;15.44;75.68
56671;BME280;42545;50.054;8.306;2022-07-04T03:01:41;100283.31;;;15.40;76.05
56671;BME280;42545;50.054;8.306;2022-07-04T03:04:08;100285.09;;;15.40;75.98
56671;BME280;42545;50.054;8.306;2022-07-04T03:06:35;100279.75;;;15.35;76.11
56671;BME280;42545;50.054;8.306;2022-07-04T03:09:02;100285.97;;;15.38;75.76
56671;BME280;42545;50.054;8.306;2022-07-04T03:11:29;100290.41;;;15.40;75.50
56671;BME280;42545;50.054;8.306;2022-07-04T03:13:56;100295.72;;;15.40;75.63
56671;BME280;42545;50.054;8.306;2022-07-04T03:16:25;100291.28;;;15.40;75.42
56671;BME280;42545;50.054;8.306;2022-07-04T03:18:51;100287.75;;;15.43;74.52
56671;BME280;42545;50.054;8.306;2022-07-04T03:21:18;100295.72;;;15.47;73.87
56671;BME280;42545;50.054;8.306;2022-07-04T03:23:45;100296.63;;;15.52;74.08
56671;BME280;42545;50.054;8.306;2022-07-04T03:26:22;100294.84;;;15.53;74.21
56671;BME280;42545;50.054;8.306;2022-07-04T03:28:49;100292.19;;;15.53;74.37
56671;BME280;42545;50.054;8.306;2022-07-04T03:31:16;100298.38;;;15.49;74.46
56671;BME280;42545;50.054;8.306;2022-07-04T03:33:45;100303.69;;;15.46;74.51
56671;BME280;42545;50.054;8.306;2022-07-04T03:36:12;100301.06;;;15.43;74.79
56671;BME280;42545;50.054;8.306;2022-07-04T03:38:39;100305.50;;;15.41;74.91
56671;BME280;42545;50.054;8.306;2022-07-04T03:41:05;100303.72;;;15.40;75.17
56671;BME280;42545;50.054;8.306;2022-07-04T03:43:32;100312.56;;;15.38;75.67
56671;BME280;42545;50.054;8.306;2022-07-04T03:45:59;100307.25;;;15.35;75.38
56671;BME280;42545;50.054;8.306;2022-07-04T03:48:26;100307.25;;;15.34;75.48
56671;BME280;42545;50.054;8.306;2022-07-04T03:50:54;100314.34;;;15.32;75.42
56671;BME280;42545;50.054;8.306;2022-07-04T03:53:21;100318.78;;;15.30;75.69
56671;BME280;42545;50.054;8.306;2022-07-04T03:55:48;100316.13;;;15.30;75.87
56671;BME280;42545;50.054;8.306;2022-07-04T03:58:16;100310.78;;;15.28;75.76
56671;BME280;42545;50.054;8.306;2022-07-04T04:00:42;100316.09;;;15.27;75.43
56671;BME280;42545;50.054;8.306;2022-07-04T04:03:10;100307.25;;;15.28;75.39
56671;BME280;42545;50.054;8.306;2022-07-04T04:05:50;100323.22;;;15.28;74.91
56671;BME280;42545;50.054;8.306;2022-07-04T04:08:19;100323.19;;;15.31;75.17
56671;BME280;42545;50.054;8.306;2022-07-04T04:10:45;100319.66;;;15.30;75.46
56671;BME280;42545;50.054;8.306;2022-07-04T04:13:12;100311.69;;;15.33;75.02
56671;BME280;42545;50.054;8.306;2022-07-04T04:15:39;100321.41;;;15.33;74.80
56671;BME280;42545;50.054;8.306;2022-07-04T04:18:06;100318.78;;;15.36;75.03
56671;BME280;42545;50.054;8.306;2022-07-04T04:20:34;100330.28;;;15.38;74.49
56671;BME280;42545;50.054;8.306;2022-07-04T04:23:01;100331.19;;;15.40;74.58
56671;BME280;42545;50.054;8.306;2022-07-04T04:25:29;100331.19;;;15.40;74.54
56671;BME280;42545;50.054;8.306;2022-07-04T04:27:56;100331.19;;;15.40;74.79
56671;BME280;42545;50.054;8.306;2022-07-04T04:30:22;100323.19;;;15.38;74.78
56671;BME280;42545;50.054;8.306;2022-07-04T04:32:50;100322.31;;;15.40;74.63
56671;BME280;42545;50.054;8.306;2022-07-04T04:35:17;100328.53;;;15.42;74.73
56671;BME280;42545;50.054;8.306;2022-07-04T04:37:44;100329.41;;;15.45;74.89
56671;BME280;42545;50.054;8.306;2022-07-04T04:40:11;100331.19;;;15.51;74.81
56671;BME280;42545;50.054;8.306;2022-07-04T04:42:40;100332.09;;;15.56;75.02
56671;BME280;42545;50.054;8.306;2022-07-04T04:45:07;100335.63;;;15.61;74.96
56671;BME280;42545;50.054;8.306;2022-07-04T04:47:34;100332.09;;;15.68;75.43
56671;BME280;42545;50.054;8.306;2022-07-04T04:50:00;100342.75;;;15.78;75.57
56671;BME280;42545;50.054;8.306;2022-07-04T04:52:27;100344.53;;;15.83;75.78
56671;BME280;42545;50.054;8.306;2022-07-04T04:54:54;100348.97;;;15.87;75.09
56671;BME280;42545;50.054;8.306;2022-07-04T04:57:21;100348.06;;;15.93;75.41
56671;BME280;42545;50.054;8.306;2022-07-04T04:59:50;100357.81;;;16.02;73.59
56671;BME280;42545;50.054;8.306;2022-07-04T05:02:17;100355.16;;;16.14;73.63
56671;BME280;42545;50.054;8.306;2022-07-04T05:04:44;100357.81;;;16.26;73.11
56671;BME280;42545;50.054;8.306;2022-07-04T05:07:10;100356.00;;;16.39;72.66
56671;BME280;42545;50.054;8.306;2022-07-04T05:09:38;100360.38;;;16.51;72.30
56671;BME280;42545;50.054;8.306;2022-07-04T05:12:05;100363.88;;;16.62;72.12
56671;BME280;42545;50.054;8.306;2022-07-04T05:14:32;100369.19;;;16.73;71.87
56671;BME280;42545;50.054;8.306;2022-07-04T05:17:01;100362.94;;;16.82;71.35
56671;BME280;42545;50.054;8.306;2022-07-04T05:19:28;100354.94;;;16.86;69.51
56671;BME280;42545;50.054;8.306;2022-07-04T05:21:55;100365.56;;;16.96;69.99
56671;BME280;42545;50.054;8.306;2022-07-04T05:24:22;100362.88;;;17.03;69.80
56671;BME280;42545;50.054;8.306;2022-07-04T05:26:49;100369.03;;;17.12;70.57
56671;BME280;42545;50.054;8.306;2022-07-04T05:29:16;100365.44;;;17.17;68.94
56671;BME280;42545;50.054;8.306;2022-07-04T05:31:43;100362.75;;;17.25;70.00
56671;BME280;42545;50.054;8.306;2022-07-04T05:34:11;100372.47;;;17.32;68.61
56671;BME280;42545;50.054;8.306;2022-07-04T05:36:38;100374.25;;;17.38;67.84
56671;BME280;42545;50.054;8.306;2022-07-04T05:39:06;100375.94;;;17.45;67.81
56671;BME280;42545;50.054;8.306;2022-07-04T05:41:33;100377.66;;;17.52;68.52
56671;BME280;42545;50.054;8.306;2022-07-04T05:44:00;100377.66;;;17.57;66.46
56671;BME280;42545;50.054;8.306;2022-07-04T05:46:27;100380.25;;;17.63;66.58
56671;BME280;42545;50.054;8.306;2022-07-04T05:48:54;100379.31;;;17.70;67.16
56671;BME280;42545;50.054;8.306;2022-07-04T05:51:22;100376.63;;;17.76;66.54
56671;BME280;42545;50.054;8.306;2022-07-04T05:53:49;100374.78;;;17.81;66.11
56671;BME280;42545;50.054;8.306;2022-07-04T05:56:16;100381.84;;;17.93;65.91
56671;BME280;42545;50.054;8.306;2022-07-04T05:58:42;100387.13;;;17.99;64.95
56671;BME280;42545;50.054;8.306;2022-07-04T06:01:09;100387.09;;;18.05;63.69
56671;BME280;42545;50.054;8.306;2022-07-04T06:03:36;100387.88;;;18.14;62.62
56671;BME280;42545;50.054;8.306;2022-07-04T06:06:04;100382.47;;;18.23;62.58
56671;BME280;42545;50.054;8.306;2022-07-04T06:08:32;100383.28;;;18.30;61.75
56671;BME280;42545;50.054;8.306;2022-07-04T06:10:59;100383.22;;;18.37;62.10
56671;BME280;42545;50.054;8.306;2022-07-04T06:13:26;100383.13;;;18.43;62.27
56671;BME280;42545;50.054;8.306;2022-07-04T06:15:54;100382.16;;;18.51;61.77
56671;BME280;42545;50.054;8.306;2022-07-04T06:18:21;100392.81;;;18.55;61.02
56671;BME280;42545;50.054;8.306;2022-07-04T06:20:47;100391.88;;;18.61;60.39
56671;BME280;42545;50.054;8.306;2022-07-04T06:23:14;100391.78;;;18.67;60.32
56671;BME280;42545;50.054;8.306;2022-07-04T06:25:43;100389.09;;;18.70;59.05
56671;BME280;42545;50.054;8.306;2022-07-04T06:28:10;100391.66;;;18.76;59.05
56671;BME280;42545;50.054;8.306;2022-07-04T06:30:36;100388.97;;;18.82;58.50
56671;BME280;42545;50.054;8.306;2022-07-04T06:33:03;100387.13;;;18.89;57.62
56671;BME280;42545;50.054;8.306;2022-07-04T06:35:31;100393.22;;;18.99;57.13
56671;BME280;42545;50.054;8.306;2022-07-04T06:38:15;100391.38;;;19.06;55.67
56671;BME280;42545;50.054;8.306;2022-07-04T06:40:46;100387.78;;;19.07;54.47
56671;BME280;42545;50.054;8.306;2022-07-04T06:43:13;100385.97;;;19.09;54.23
56671;BME280;42545;50.054;8.306;2022-07-04T06:45:40;100388.59;;;19.13;53.58
56671;BME280;42545;50.054;8.306;2022-07-04T06:48:07;100377.81;;;19.16;53.44
56671;BME280;42545;50.054;8.306;2022-07-04T06:50:34;100382.19;;;19.25;52.86
56671;BME280;42545;50.054;8.306;2022-07-04T06:53:02;100379.44;;;19.30;52.22
56671;BME280;42545;50.054;8.306;2022-07-04T06:55:29;100376.69;;;19.34;52.14
56671;BME280;42545;50.054;8.306;2022-07-04T06:57:58;100376.63;;;19.40;51.89
56671;BME280;42545;50.054;8.306;2022-07-04T07:00:25;100370.22;;;19.49;51.99
56671;BME280;42545;50.054;8.306;2022-07-04T07:02:55;100364.78;;;19.55;51.51
56671;BME280;42545;50.054;8.306;2022-07-04T07:05:25;100366.50;;;19.59;49.75
56671;BME280;42545;50.054;8.306;2022-07-04T07:07:52;100362.03;;;19.58;50.29
56671;BME280;42545;50.054;8.306;2022-07-04T07:10:18;100358.44;;;19.63;51.08
56671;BME280;42545;50.054;8.306;2022-07-04T07:12:46;100362.84;;;19.65;50.42
56671;BME280;42545;50.054;8.306;2022-07-04T07:15:14;100357.44;;;19.68;50.89
56671;BME280;42545;50.054;8.306;2022-07-04T07:17:43;100351.13;;;19.75;50.93
56671;BME280;42545;50.054;8.306;2022-07-04T07:20:10;100350.09;;;19.83;50.39
56671;BME280;42545;50.054;8.306;2022-07-04T07:22:38;100357.19;;;19.87;49.77
56671;BME280;42545;50.054;8.306;2022-07-04T07:25:06;100339.31;;;19.86;50.54
56671;BME280;42545;50.054;8.306;2022-07-04T07:27:33;100353.38;;;19.98;50.13
56671;BME280;42545;50.054;8.306;2022-07-04T07:30:00;100348.84;;;20.04;50.42
56671;BME280;42545;50.054;8.306;2022-07-04T07:32:29;100350.47;;;20.12;50.22
56671;BME280;42545;50.054;8.306;2022-07-04T07:34:56;100357.38;;;20.24;49.57
56671;BME280;42545;50.054;8.306;2022-07-04T07:37:23;100354.47;;;20.36;49.79
56671;BME280;42545;50.054;8.306;2022-07-04T07:39:49;100353.44;;;20.45;49.37
56671;BME280;42545;50.054;8.306;2022-07-04T07:42:16;100355.97;;;20.51;49.44
56671;BME280;42545;50.054;8.306;2022-07-04T07:44:43;100354.91;;;20.60;49.08
56671;BME280;42545;50.054;8.306;2022-07-04T07:47:11;100347.69;;;20.65;48.42
56671;BME280;42545;50.054;8.306;2022-07-04T07:49:40;100353.78;;;20.73;48.09
56671;BME280;42545;50.054;8.306;2022-07-04T07:52:07;100352.00;;;20.74;47.23
56671;BME280;42545;50.054;8.306;2022-07-04T07:54:34;100353.56;;;20.84;47.24
56671;BME280;42545;50.054;8.306;2022-07-04T07:57:02;100355.19;;;20.91;47.19
56671;BME280;42545;50.054;8.306;2022-07-04T07:59:30;100352.44;;;20.95;47.10
56671;BME280;42545;50.054;8.306;2022-07-04T08:01:56;100349.91;;;20.88;47.20
56671;BME280;42545;50.054;8.306;2022-07-04T08:04:23;100354.38;;;20.88;47.51
56671;BME280;42545;50.054;8.306;2022-07-04T08:07:05;100352.50;;;20.91;46.62
56671;BME280;42545;50.054;8.306;2022-07-04T08:09:33;100346.94;;;21.01;47.00
56671;BME280;42545;50.054;8.306;2022-07-04T08:12:02;100343.22;;;21.08;47.38
56671;BME280;42545;50.054;8.306;2022-07-04T08:14:30;100338.53;;;21.18;47.25
56671;BME280;42545;50.054;8.306;2022-07-04T08:16:58;100338.41;;;21.22;46.60
56671;BME280;42545;50.054;8.306;2022-07-04T08:19:25;100337.19;;;21.37;47.01
56671;BME280;42545;50.054;8.306;2022-07-04T08:21:53;100335.25;;;21.42;46.43
56671;BME280;42545;50.054;8.306;2022-07-04T08:24:22;100333.31;;;21.52;46.60
56671;BME280;42545;50.054;8.306;2022-07-04T08:26:49;100334.81;;;21.62;45.76
56671;BME280;42545;50.054;8.306;2022-07-04T08:29:17;100326.91;;;21.58;45.44
56671;BME280;42545;50.054;8.306;2022-07-04T08:31:44;100327.19;;;21.45;44.66
56671;BME280;42545;50.054;8.306;2022-07-04T08:34:11;100320.03;;;21.43;45.53
56671;BME280;42545;50.054;8.306;2022-07-04T08:36:38;100310.22;;;21.45;45.75
56671;BME280;42545;50.054;8.306;2022-07-04T08:39:05;100319.94;;;21.49;46.33
56671;BME280;42545;50.054;8.306;2022-07-04T08:41:37;100318.25;;;21.43;45.23
56671;BME280;42545;50.054;8.306;2022-07-04T08:44:05;100311.88;;;21.49;45.49
56671;BME280;42545;50.054;8.306;2022-07-04T08:46:35;100319.69;;;21.60;45.36
56671;BME280;42545;50.054;8.306;2022-07-04T08:49:10;100313.41;;;21.59;44.85
56671;BME280;42545;50.054;8.306;2022-07-04T08:51:43;100313.34;;;21.62;44.98
56671;BME280;42545;50.054;8.306;2022-07-04T08:54:11;100313.38;;;21.61;43.85
56671;BME280;42545;50.054;8.306;2022-07-04T08:56:54;100313.50;;;21.56;44.84
56671;BME280;42545;50.054;8.306;2022-07-04T08:59:39;100312.66;;;21.54;43.88
56671;BME280;42545;50.054;8.306;2022-07-04T09:02:11;100313.34;;;21.62;44.33
56671;BME280;42545;50.054;8.306;2022-07-04T09:04:40;100306.06;;;21.67;44.59
56671;BME280;42545;50.054;8.306;2022-07-04T09:07:10;100304.25;;;21.68;43.69
56671;BME280;42545;50.054;8.306;2022-07-04T09:09:39;100304.13;;;21.73;44.49
56671;BME280;42545;50.054;8.306;2022-07-04T09:12:09;100310.41;;;21.72;43.39
56671;BME280;42545;50.054;8.306;2022-07-04T09:14:37;100297.00;;;21.72;45.29
56671;BME280;42545;50.054;8.306;2022-07-04T09:17:04;100305.72;;;21.81;45.04
56671;BME280;42545;50.054;8.306;2022-07-04T09:19:31;100304.47;;;21.95;44.22
56671;BME280;42545;50.054;8.306;2022-07-04T09:22:03;100308.72;;;22.03;43.40
56671;BME280;42545;50.054;8.306;2022-07-04T09:24:44;100296.94;;;22.07;43.03
56671;BME280;42545;50.054;8.306;2022-07-04T09:27:28;100293.22;;;22.13;42.74
56671;BME280;42545;50.054;8.306;2022-07-04T09:29:56;100290.19;;;22.25;42.46
56671;BME280;42545;50.054;8.306;2022-07-04T09:32:27;100284.44;;;22.39;43.15
56671;BME280;42545;50.054;8.306;2022-07-04T09:34:59;100278.34;;;22.34;41.79
56671;BME280;42545;50.054;8.306;2022-07-04T09:37:33;100268.22;;;22.42;42.81
56671;BME280;42545;50.054;8.306;2022-07-04T09:40:01;100280.22;;;22.62;42.95
56671;BME280;42545;50.054;8.306;2022-07-04T09:42:36;100272.81;;;22.69;42.10
56671;BME280;42545;50.054;8.306;2022-07-04T09:45:05;100269.34;;;22.65;41.96
56671;BME280;42545;50.054;8.306;2022-07-04T09:47:32;100267.50;;;22.67;42.26
56671;BME280;42545;50.054;8.306;2022-07-04T09:50:02;100268.94;;;22.79;42.07
56671;BME280;42545;50.054;8.306;2022-07-04T09:52:29;100257.97;;;22.85;42.34
56671;BME280;42545;50.054;8.306;2022-07-04T09:54:58;100270.56;;;22.84;40.41
56671;BME280;42545;50.054;8.306;2022-07-04T09:57:25;100268.06;;;22.78;41.34
56671;BME280;42545;50.054;8.306;2022-07-04T09:59:54;100257.31;;;22.78;41.41
56671;BME280;42545;50.054;8.306;2022-07-04T10:02:21;100264.94;;;22.92;41.32
56671;BME280;42545;50.054;8.306;2022-07-04T10:04:48;100264.63;;;23.01;41.30
56671;BME280;42545;50.054;8.306;2022-07-04T10:07:30;100257.94;;;23.16;40.35
56671;BME280;42545;50.054;8.306;2022-07-04T10:09:58;100260.03;;;23.35;39.62
56671;BME280;42545;50.054;8.306;2022-07-04T10:12:26;100270.50;;;23.44;39.70
56671;BME280;42545;50.054;8.306;2022-07-04T10:14:55;100250.41;;;23.53;39.14
56671;BME280;42545;50.054;8.306;2022-07-04T10:17:23;100263.88;;;23.53;39.18
56671;BME280;42545;50.054;8.306;2022-07-04T10:19:49;100270.84;;;23.60;39.35
56671;BME280;42545;50.054;8.306;2022-07-04T10:22:19;100274.53;;;23.57;40.11
56671;BME280;42545;50.054;8.306;2022-07-04T10:24:46;100276.94;;;23.65;39.83
56671;BME280;42545;50.054;8.306;2022-07-04T10:27:13;100279.59;;;23.67;38.46
56671;BME280;42545;50.054;8.306;2022-07-04T10:29:41;100287.25;;;23.52;39.04
56671;BME280;42545;50.054;8.306;2022-07-04T10:32:11;100273.19;;;23.44;39.99
56671;BME280;42545;50.054;8.306;2022-07-04T10:34:40;100274.88;;;23.47;38.68
56671;BME280;42545;50.054;8.306;2022-07-04T10:37:07;100280.44;;;23.42;39.06
56671;BME280;42545;50.054;8.306;2022-07-04T10:39:34;100281.41;;;23.39;40.23
56671;BME280;42545;50.054;8.306;2022-07-04T10:42:01;100281.03;;;23.50;40.15
56671;BME280;42545;50.054;8.306;2022-07-04T10:44:28;100291.50;;;23.59;40.10
56671;BME280;42545;50.054;8.306;2022-07-04T10:47:02;100284.97;;;23.67;39.95
56671;BME280;42545;50.054;8.306;2022-07-04T10:49:31;100288.50;;;23.69;37.97
56671;BME280;42545;50.054;8.306;2022-07-04T10:52:11;100282.38;;;23.64;38.67
56671;BME280;42545;50.054;8.306;2022-07-04T10:54:40;100286.53;;;23.47;38.15
56671;BME280;42545;50.054;8.306;2022-07-04T10:57:10;100272.66;;;23.59;38.31
56671;BME280;42545;50.054;8.306;2022-07-04T10:59:38;100270.19;;;23.80;38.26
56671;BME280;42545;50.054;8.306;2022-07-04T11:02:25;100266.25;;;23.90;37.12
56671;BME280;42545;50.054;8.306;2022-07-04T11:04:57;100264.91;;;24.02;37.07
56671;BME280;42545;50.054;8.306;2022-07-04T11:07:59;100272.50;;;24.16;37.23
56671;BME280;42545;50.054;8.306;2022-07-04T11:10:27;100273.22;;;24.21;37.52
56671;BME280;42545;50.054;8.306;2022-07-04T11:13:14;100278.38;;;24.27;38.11
56671;BME280;42545;50.054;8.306;2022-07-04T11:16:02;100271.13;;;24.29;36.82
56671;BME280;42545;50.054;8.306;2022-07-04T11:18:29;100272.84;;;24.32;36.24
56671;BME280;42545;50.054;8.306;2022-07-04T11:20:59;100266.63;;;24.30;35.59
56671;BME280;42545;50.054;8.306;2022-07-04T11:23:26;100266.56;;;24.31;36.60
56671;BME280;42545;50.054;8.306;2022-07-04T11:25:53;100259.88;;;24.42;36.16
56671;BME280;42545;50.054;8.306;2022-07-04T11:28:23;100260.59;;;24.47;36.02
56671;BME280;42545;50.054;8.306;2022-07-04T11:30:50;100257.63;;;24.54;34.03
56671;BME280;42545;50.054;8.306;2022-07-04T11:33:19;100251.25;;;24.57;35.89
56671;BME280;42545;50.054;8.306;2022-07-04T11:36:06;100248.41;;;24.60;34.97
56671;BME280;42545;50.054;8.306;2022-07-04T11:38:47;100247.19;;;24.69;35.21
56671;BME280;42545;50.054;8.306;2022-07-04T11:41:15;100247.25;;;24.67;35.40
56671;BME280;42545;50.054;8.306;2022-07-04T11:44:03;100245.91;;;24.79;35.75
56671;BME280;42545;50.054;8.306;2022-07-04T11:46:47;100242.69;;;24.91;34.47
56671;BME280;42545;50.054;8.306;2022-07-04T11:49:15;100243.38;;;24.97;33.76
56671;BME280;42545;50.054;8.306;2022-07-04T11:51:46;100237.88;;;25.00;33.39
56671;BME280;42545;50.054;8.306;2022-07-04T11:54:13;100234.97;;;25.04;34.22
56671;BME280;42545;50.054;8.306;2022-07-04T11:56:40;100241.13;;;25.08;33.74
56671;BME280;42545;50.054;8.306;2022-07-04T11:59:12;100239.81;;;25.18;33.96
56671;BME280;42545;50.054;8.306;2022-07-04T12:01:40;100226.97;;;25.03;32.94
56671;BME280;42545;50.054;8.306;2022-07-04T12:04:14;100222.22;;;24.86;34.48
56671;BME280;42545;50.054;8.306;2022-07-04T12:06:42;100218.47;;;24.90;35.06
56671;BME280;42545;50.054;8.306;2022-07-04T12:09:12;100223.72;;;24.93;34.04
56671;BME280;42545;50.054;8.306;2022-07-04T12:11:51;100227.75;;;24.83;33.07
56671;BME280;42545;50.054;8.306;2022-07-04T12:14:19;100224.81;;;24.89;33.70
56671;BME280;42545;50.054;8.306;2022-07-04T12:16:46;100226.31;;;24.96;33.36
56671;BME280;42545;50.054;8.306;2022-07-04T12:19:13;100217.59;;;25.11;32.66
56671;BME280;42545;50.054;8.306;2022-07-04T12:21:43;100223.84;;;25.36;32.96
56671;BME280;42545;50.054;8.306;2022-07-04T12:24:13;100214.44;;;25.44;32.79
56671;BME280;42545;50.054;8.306;2022-07-04T12:26:45;100224.31;;;25.45;32.15
56671;BME280;42545;50.054;8.306;2022-07-04T12:29:20;100228.47;;;25.54;32.65
56671;BME280;42545;50.054;8.306;2022-07-04T12:31:51;100222.03;;;25.57;31.89
56671;BME280;42545;50.054;8.306;2022-07-04T12:34:20;100222.59;;;25.65;31.76
56671;BME280;42545;50.054;8.306;2022-07-04T12:36:51;100224.16;;;25.70;31.84
56671;BME280;42545;50.054;8.306;2022-07-04T12:39:31;100222.31;;;25.71;31.42
56671;BME280;42545;50.054;8.306;2022-07-04T12:42:05;100209.06;;;25.65;31.27
56671;BME280;42545;50.054;8.306;2022-07-04T12:44:32;100220.28;;;25.56;32.28
56671;BME280;42545;50.054;8.306;2022-07-04T12:46:59;100205.75;;;25.58;31.75
56671;BME280;42545;50.054;8.306;2022-07-04T12:49:27;100208.19;;;25.64;31.73
56671;BME280;42545;50.054;8.306;2022-07-04T12:52:04;100203.34;;;25.73;31.16
56671;BME280;42545;50.054;8.306;2022-07-04T12:54:33;100195.16;;;25.74;30.91
56671;BME280;42545;50.054;8.306;2022-07-04T12:57:05;100200.28;;;25.60;30.62
56671;BME280;42545;50.054;8.306;2022-07-04T12:59:33;100205.06;;;25.53;31.36